sensor_id;sensor_type;location;lat;lon;timestamp;temperature;humidity
20492;DHT22;10404;51.468;6.762;2023-10-09T00:00:53;14.10;71.70
20492;DHT22;10404;51.468;6.762;2023-10-09T00:03:27;14.10;71.70
20492;DHT22;10404;51.468;6.762;2023-10-09T00:05:53;14.10;71.90
20492;DHT22;10404;51.468;6.762;2023-10-09T00:08:19;14.10;71.80
20492;DHT22;10404;51.468;6.762;2023-10-09T00:10:52;14.00;71.70
20492;DHT22;10404;51.468;6.762;2023-10-09T00:13:23;14.00;71.80
20492;DHT22;10404;51.468;6.762;2023-10-09T00:16:04;14.00;71.80
20492;DHT22;10404;51.468;6.762;2023-10-09T00:18:41;14.00;71.80
20492;DHT22;10404;51.468;6.762;2023-10-09T00:21:18;14.00;71.80
20492;DHT22;10404;51.468;6.762;2023-10-09T00:23:53;14.00;71.80
20492;DHT22;10404;51.468;6.762;2023-10-09T00:26:21;14.00;71.80
20492;DHT22;10404;51.468;6.762;2023-10-09T00:28:46;14.00;71.80
20492;DHT22;10404;51.468;6.762;2023-10-09T00:31:15;14.00;71.80
20492;DHT22;10404;51.468;6.762;2023-10-09T00:33:44;14.00;71.90
20492;DHT22;10404;51.468;6.762;2023-10-09T00:36:11;14.00;71.80
20492;DHT22;10404;51.468;6.762;2023-10-09T00:38:37;13.90;71.90
20492;DHT22;10404;51.468;6.762;2023-10-09T00:41:16;13.90;71.90
20492;DHT22;10404;51.468;6.762;2023-10-09T00:43:46;13.90;72.00
20492;DHT22;10404;51.468;6.762;2023-10-09T00:46:15;13.90;72.00
20492;DHT22;10404;51.468;6.762;2023-10-09T00:48:48;13.90;72.00
20492;DHT22;10404;51.468;6.762;2023-10-09T00:51:18;13.90;72.00
20492;DHT22;10404;51.468;6.762;2023-10-09T00:53:55;13.90;72.00
20492;DHT22;10404;51.468;6.762;2023-10-09T00:56:23;13.90;72.10
20492;DHT22;10404;51.468;6.762;2023-10-09T00:58:58;13.90;72.20
20492;DHT22;10404;51.468;6.762;2023-10-09T01:01:46;13.90;72.20
20492;DHT22;10404;51.468;6.762;2023-10-09T01:04:29;13.90;72.30
20492;DHT22;10404;51.468;6.762;2023-10-09T01:07:03;13.90;72.40
20492;DHT22;10404;51.468;6.762;2023-10-09T01:09:34;13.90;72.30
20492;DHT22;10404;51.468;6.762;2023-10-09T01:12:09;13.90;72.30
20492;DHT22;10404;51.468;6.762;2023-10-09T01:14:43;13.90;72.30
20492;DHT22;10404;51.468;6.762;2023-10-09T01:17:09;13.90;72.30
20492;DHT22;10404;51.468;6.762;2023-10-09T01:19:35;13.90;72.20
20492;DHT22;10404;51.468;6.762;2023-10-09T01:22:01;13.90;72.30
20492;DHT22;10404;51.468;6.762;2023-10-09T01:24:42;13.90;72.30
20492;DHT22;10404;51.468;6.762;2023-10-09T01:27:08;13.90;72.20
20492;DHT22;10404;51.468;6.762;2023-10-09T01:29:40;13.90;72.30
20492;DHT22;10404;51.468;6.762;2023-10-09T01:32:07;13.90;72.30
20492;DHT22;10404;51.468;6.762;2023-10-09T01:34:41;13.90;72.30
20492;DHT22;10404;51.468;6.762;2023-10-09T01:37:25;13.90;72.20
20492;DHT22;10404;51.468;6.762;2023-10-09T01:39:58;13.90;72.30
20492;DHT22;10404;51.468;6.762;2023-10-09T01:42:25;13.90;72.40
20492;DHT22;10404;51.468;6.762;2023-10-09T01:45:01;13.80;72.30
20492;DHT22;10404;51.468;6.762;2023-10-09T01:47:44;13.80;72.30
20492;DHT22;10404;51.468;6.762;2023-10-09T01:50:36;13.80;72.30
20492;DHT22;10404;51.468;6.762;2023-10-09T01:53:02;13.80;72.30
20492;DHT22;10404;51.468;6.762;2023-10-09T01:55:32;13.80;72.30
20492;DHT22;10404;51.468;6.762;2023-10-09T01:58:06;13.70;72.20
20492;DHT22;10404;51.468;6.762;2023-10-09T02:00:50;13.70;72.30
20492;DHT22;10404;51.468;6.762;2023-10-09T02:03:28;13.70;72.20
20492;DHT22;10404;51.468;6.762;2023-10-09T02:05:54;13.70;72.20
20492;DHT22;10404;51.468;6.762;2023-10-09T02:08:28;13.70;72.20
20492;DHT22;10404;51.468;6.762;2023-10-09T02:10:55;13.70;72.20
20492;DHT22;10404;51.468;6.762;2023-10-09T02:13:22;13.70;72.10
20492;DHT22;10404;51.468;6.762;2023-10-09T02:16:00;13.70;72.20
20492;DHT22;10404;51.468;6.762;2023-10-09T02:18:38;13.70;72.20
20492;DHT22;10404;51.468;6.762;2023-10-09T02:21:18;13.70;72.20
20492;DHT22;10404;51.468;6.762;2023-10-09T02:23:53;13.70;72.20
20492;DHT22;10404;51.468;6.762;2023-10-09T02:26:22;13.60;72.20
20492;DHT22;10404;51.468;6.762;2023-10-09T02:28:53;13.60;72.20
20492;DHT22;10404;51.468;6.762;2023-10-09T02:31:25;13.60;72.30
20492;DHT22;10404;51.468;6.762;2023-10-09T02:34:01;13.60;72.20
20492;DHT22;10404;51.468;6.762;2023-10-09T02:36:30;13.60;72.20
20492;DHT22;10404;51.468;6.762;2023-10-09T02:38:56;13.60;72.20
20492;DHT22;10404;51.468;6.762;2023-10-09T02:41:22;13.60;72.20
20492;DHT22;10404;51.468;6.762;2023-10-09T02:43:54;13.60;72.20
20492;DHT22;10404;51.468;6.762;2023-10-09T02:46:35;13.60;72.30
20492;DHT22;10404;51.468;6.762;2023-10-09T02:49:02;13.60;72.30
20492;DHT22;10404;51.468;6.762;2023-10-09T02:51:31;13.60;72.30
20492;DHT22;10404;51.468;6.762;2023-10-09T02:54:02;13.60;72.30
20492;DHT22;10404;51.468;6.762;2023-10-09T02:56:49;13.60;72.40
20492;DHT22;10404;51.468;6.762;2023-10-09T02:59:24;13.60;72.30
20492;DHT22;10404;51.468;6.762;2023-10-09T03:01:49;13.60;72.40
20492;DHT22;10404;51.468;6.762;2023-10-09T03:04:18;13.60;72.40
20492;DHT22;10404;51.468;6.762;2023-10-09T03:06:44;13.60;72.40
20492;DHT22;10404;51.468;6.762;2023-10-09T03:09:20;13.60;72.50
20492;DHT22;10404;51.468;6.762;2023-10-09T03:11:56;13.60;72.40
20492;DHT22;10404;51.468;6.762;2023-10-09T03:14:31;13.60;72.50
20492;DHT22;10404;51.468;6.762;2023-10-09T03:16:57;13.60;72.50
20492;DHT22;10404;51.468;6.762;2023-10-09T03:19:25;13.60;72.40
20492;DHT22;10404;51.468;6.762;2023-10-09T03:21:52;13.60;72.50
20492;DHT22;10404;51.468;6.762;2023-10-09T03:24:18;13.60;72.50
20492;DHT22;10404;51.468;6.762;2023-10-09T03:26:45;13.60;72.50
20492;DHT22;10404;51.468;6.762;2023-10-09T03:29:11;13.60;72.50
20492;DHT22;10404;51.468;6.762;2023-10-09T03:31:37;13.60;72.50
20492;DHT22;10404;51.468;6.762;2023-10-09T03:34:03;13.60;72.60
20492;DHT22;10404;51.468;6.762;2023-10-09T03:36:29;13.60;72.60
20492;DHT22;10404;51.468;6.762;2023-10-09T03:39:06;13.60;72.70
20492;DHT22;10404;51.468;6.762;2023-10-09T03:41:45;13.60;72.60
20492;DHT22;10404;51.468;6.762;2023-10-09T03:44:14;13.50;72.70
20492;DHT22;10404;51.468;6.762;2023-10-09T03:46:41;13.50;72.70
20492;DHT22;10404;51.468;6.762;2023-10-09T03:49:09;13.50;72.70
20492;DHT22;10404;51.468;6.762;2023-10-09T03:51:37;13.50;72.80
20492;DHT22;10404;51.468;6.762;2023-10-09T03:54:03;13.60;72.70
20492;DHT22;10404;51.468;6.762;2023-10-09T03:56:33;13.50;72.70
20492;DHT22;10404;51.468;6.762;2023-10-09T03:58:58;13.60;72.80
20492;DHT22;10404;51.468;6.762;2023-10-09T04:01:25;13.60;72.80
20492;DHT22;10404;51.468;6.762;2023-10-09T04:04:04;13.60;72.80
20492;DHT22;10404;51.468;6.762;2023-10-09T04:06:32;13.60;72.70
20492;DHT22;10404;51.468;6.762;2023-10-09T04:09:08;13.60;72.90
20492;DHT22;10404;51.468;6.762;2023-10-09T04:11:47;13.50;72.80
20492;DHT22;10404;51.468;6.762;2023-10-09T04:14:15;13.60;72.70
20492;DHT22;10404;51.468;6.762;2023-10-09T04:16:57;13.50;72.80
20492;DHT22;10404;51.468;6.762;2023-10-09T04:19:31;13.60;72.80
20492;DHT22;10404;51.468;6.762;2023-10-09T04:22:05;13.60;72.80
20492;DHT22;10404;51.468;6.762;2023-10-09T04:24:33;13.60;72.90
20492;DHT22;10404;51.468;6.762;2023-10-09T04:27:06;13.60;72.90
20492;DHT22;10404;51.468;6.762;2023-10-09T04:29:33;13.60;72.90
20492;DHT22;10404;51.468;6.762;2023-10-09T04:32:09;13.60;72.90
20492;DHT22;10404;51.468;6.762;2023-10-09T04:34:41;13.60;73.00
20492;DHT22;10404;51.468;6.762;2023-10-09T04:37:36;13.60;72.90
20492;DHT22;10404;51.468;6.762;2023-10-09T04:40:04;13.60;72.90
20492;DHT22;10404;51.468;6.762;2023-10-09T04:42:38;13.60;73.00
20492;DHT22;10404;51.468;6.762;2023-10-09T04:45:05;13.60;73.10
20492;DHT22;10404;51.468;6.762;2023-10-09T04:47:35;13.60;73.10
20492;DHT22;10404;51.468;6.762;2023-10-09T04:50:06;13.60;73.20
20492;DHT22;10404;51.468;6.762;2023-10-09T04:52:40;13.60;73.30
20492;DHT22;10404;51.468;6.762;2023-10-09T04:55:05;13.60;73.30
20492;DHT22;10404;51.468;6.762;2023-10-09T04:57:38;13.60;73.40
20492;DHT22;10404;51.468;6.762;2023-10-09T05:00:13;13.60;73.50
20492;DHT22;10404;51.468;6.762;2023-10-09T05:02:52;13.60;73.40
20492;DHT22;10404;51.468;6.762;2023-10-09T05:05:22;13.60;73.40
20492;DHT22;10404;51.468;6.762;2023-10-09T05:08:16;13.60;73.40
20492;DHT22;10404;51.468;6.762;2023-10-09T05:11:01;13.60;73.40
20492;DHT22;10404;51.468;6.762;2023-10-09T05:13:28;13.60;73.70
20492;DHT22;10404;51.468;6.762;2023-10-09T05:18:39;13.60;73.70
20492;DHT22;10404;51.468;6.762;2023-10-09T05:21:04;13.60;73.80
20492;DHT22;10404;51.468;6.762;2023-10-09T05:23:39;13.60;73.80
20492;DHT22;10404;51.468;6.762;2023-10-09T05:26:17;13.60;73.80
20492;DHT22;10404;51.468;6.762;2023-10-09T05:29:03;13.60;73.90
20492;DHT22;10404;51.468;6.762;2023-10-09T05:31:51;13.60;73.90
20492;DHT22;10404;51.468;6.762;2023-10-09T05:34:35;13.70;73.90
20492;DHT22;10404;51.468;6.762;2023-10-09T05:37:20;13.70;74.00
20492;DHT22;10404;51.468;6.762;2023-10-09T05:39:58;13.70;74.00
20492;DHT22;10404;51.468;6.762;2023-10-09T05:42:29;13.70;74.00
20492;DHT22;10404;51.468;6.762;2023-10-09T05:45:16;13.70;74.00
20492;DHT22;10404;51.468;6.762;2023-10-09T05:47:45;13.70;74.10
20492;DHT22;10404;51.468;6.762;2023-10-09T05:52:48;13.70;74.10
20492;DHT22;10404;51.468;6.762;2023-10-09T05:55:16;13.70;74.20
20492;DHT22;10404;51.468;6.762;2023-10-09T05:58:05;13.70;74.30
20492;DHT22;10404;51.468;6.762;2023-10-09T06:00:50;13.70;74.30
20492;DHT22;10404;51.468;6.762;2023-10-09T06:03:45;13.70;74.20
20492;DHT22;10404;51.468;6.762;2023-10-09T06:06:14;13.70;74.20
20492;DHT22;10404;51.468;6.762;2023-10-09T06:09:05;13.70;74.20
20492;DHT22;10404;51.468;6.762;2023-10-09T06:11:45;13.70;74.10
20492;DHT22;10404;51.468;6.762;2023-10-09T06:14:21;13.70;74.20
20492;DHT22;10404;51.468;6.762;2023-10-09T06:16:57;13.70;74.20
20492;DHT22;10404;51.468;6.762;2023-10-09T06:19:24;13.80;74.10
20492;DHT22;10404;51.468;6.762;2023-10-09T06:21:59;13.80;74.10
20492;DHT22;10404;51.468;6.762;2023-10-09T06:24:38;13.80;74.10
20492;DHT22;10404;51.468;6.762;2023-10-09T06:27:19;13.80;74.10
20492;DHT22;10404;51.468;6.762;2023-10-09T06:29:58;13.80;74.20
20492;DHT22;10404;51.468;6.762;2023-10-09T06:32:42;13.90;74.20
20492;DHT22;10404;51.468;6.762;2023-10-09T06:35:20;13.80;74.20
20492;DHT22;10404;51.468;6.762;2023-10-09T06:37:56;13.80;74.30
20492;DHT22;10404;51.468;6.762;2023-10-09T06:40:36;13.90;74.20
20492;DHT22;10404;51.468;6.762;2023-10-09T06:43:02;13.90;74.20
20492;DHT22;10404;51.468;6.762;2023-10-09T06:45:35;13.90;74.20
20492;DHT22;10404;51.468;6.762;2023-10-09T06:48:14;13.90;74.30
20492;DHT22;10404;51.468;6.762;2023-10-09T06:51:06;13.90;74.40
20492;DHT22;10404;51.468;6.762;2023-10-09T06:53:59;13.90;74.50
20492;DHT22;10404;51.468;6.762;2023-10-09T06:56:30;13.90;74.40
20492;DHT22;10404;51.468;6.762;2023-10-09T06:58:56;13.90;74.50
20492;DHT22;10404;51.468;6.762;2023-10-09T07:01:27;13.90;74.60
20492;DHT22;10404;51.468;6.762;2023-10-09T07:03:54;13.90;74.30
20492;DHT22;10404;51.468;6.762;2023-10-09T07:06:20;13.90;74.50
20492;DHT22;10404;51.468;6.762;2023-10-09T07:08:56;13.90;74.60
20492;DHT22;10404;51.468;6.762;2023-10-09T07:11:43;13.90;74.50
20492;DHT22;10404;51.468;6.762;2023-10-09T07:14:13;13.90;74.70
20492;DHT22;10404;51.468;6.762;2023-10-09T07:16:58;13.90;74.70
20492;DHT22;10404;51.468;6.762;2023-10-09T07:19:29;13.90;74.80
20492;DHT22;10404;51.468;6.762;2023-10-09T07:22:24;13.90;74.90
20492;DHT22;10404;51.468;6.762;2023-10-09T07:24:55;13.90;74.80
20492;DHT22;10404;51.468;6.762;2023-10-09T07:30:10;13.90;75.10
20492;DHT22;10404;51.468;6.762;2023-10-09T07:33:03;14.00;75.00
20492;DHT22;10404;51.468;6.762;2023-10-09T07:35:41;14.00;75.20
20492;DHT22;10404;51.468;6.762;2023-10-09T07:38:12;14.00;75.10
20492;DHT22;10404;51.468;6.762;2023-10-09T07:40:40;14.00;75.00
20492;DHT22;10404;51.468;6.762;2023-10-09T07:43:25;14.00;75.10
20492;DHT22;10404;51.468;6.762;2023-10-09T07:45:54;14.00;75.00
20492;DHT22;10404;51.468;6.762;2023-10-09T07:48:40;14.00;75.50
20492;DHT22;10404;51.468;6.762;2023-10-09T07:51:19;14.10;75.50
20492;DHT22;10404;51.468;6.762;2023-10-09T07:53:58;14.00;75.30
20492;DHT22;10404;51.468;6.762;2023-10-09T07:56:37;14.10;75.10
20492;DHT22;10404;51.468;6.762;2023-10-09T07:59:09;14.10;75.30
20492;DHT22;10404;51.468;6.762;2023-10-09T08:01:48;14.10;75.10
20492;DHT22;10404;51.468;6.762;2023-10-09T08:04:29;14.10;75.50
20492;DHT22;10404;51.468;6.762;2023-10-09T08:07:24;14.10;75.40
20492;DHT22;10404;51.468;6.762;2023-10-09T08:10:00;14.10;76.60
20492;DHT22;10404;51.468;6.762;2023-10-09T08:12:44;14.20;75.90
20492;DHT22;10404;51.468;6.762;2023-10-09T08:15:10;14.20;76.80
20492;DHT22;10404;51.468;6.762;2023-10-09T08:17:46;14.20;77.20
20492;DHT22;10404;51.468;6.762;2023-10-09T08:20:17;14.20;77.30
20492;DHT22;10404;51.468;6.762;2023-10-09T08:22:51;14.20;77.80
20492;DHT22;10404;51.468;6.762;2023-10-09T08:25:18;14.30;77.60
20492;DHT22;10404;51.468;6.762;2023-10-09T08:28:02;14.30;77.10
20492;DHT22;10404;51.468;6.762;2023-10-09T08:30:40;14.30;76.80
20492;DHT22;10404;51.468;6.762;2023-10-09T08:33:20;14.30;76.90
20492;DHT22;10404;51.468;6.762;2023-10-09T08:35:56;14.30;77.50
20492;DHT22;10404;51.468;6.762;2023-10-09T08:38:29;14.40;77.80
20492;DHT22;10404;51.468;6.762;2023-10-09T08:41:07;14.40;77.90
20492;DHT22;10404;51.468;6.762;2023-10-09T08:43:37;14.40;78.00
20492;DHT22;10404;51.468;6.762;2023-10-09T08:46:05;14.40;77.40
20492;DHT22;10404;51.468;6.762;2023-10-09T08:48:30;14.40;77.60
20492;DHT22;10404;51.468;6.762;2023-10-09T08:50:56;14.40;78.10
20492;DHT22;10404;51.468;6.762;2023-10-09T08:53:24;14.50;77.60
20492;DHT22;10404;51.468;6.762;2023-10-09T08:55:50;14.50;77.80
20492;DHT22;10404;51.468;6.762;2023-10-09T08:58:17;14.50;77.70
20492;DHT22;10404;51.468;6.762;2023-10-09T09:00:50;14.50;78.10
20492;DHT22;10404;51.468;6.762;2023-10-09T09:03:18;14.50;78.00
20492;DHT22;10404;51.468;6.762;2023-10-09T09:05:46;14.60;77.80
20492;DHT22;10404;51.468;6.762;2023-10-09T09:08:30;14.60;78.50
20492;DHT22;10404;51.468;6.762;2023-10-09T09:11:01;14.70;78.10
20492;DHT22;10404;51.468;6.762;2023-10-09T09:13:45;14.70;78.20
20492;DHT22;10404;51.468;6.762;2023-10-09T09:16:33;14.80;79.00
20492;DHT22;10404;51.468;6.762;2023-10-09T09:19:07;14.90;78.50
20492;DHT22;10404;51.468;6.762;2023-10-09T09:24:10;15.00;78.10
20492;DHT22;10404;51.468;6.762;2023-10-09T09:26:49;15.10;78.40
20492;DHT22;10404;51.468;6.762;2023-10-09T09:29:46;15.20;78.10
20492;DHT22;10404;51.468;6.762;2023-10-09T09:32:31;15.20;78.30
20492;DHT22;10404;51.468;6.762;2023-10-09T09:35:04;15.20;78.40
20492;DHT22;10404;51.468;6.762;2023-10-09T09:37:32;15.20;78.40
20492;DHT22;10404;51.468;6.762;2023-10-09T09:40:04;15.30;78.50
20492;DHT22;10404;51.468;6.762;2023-10-09T09:42:49;15.30;78.70
20492;DHT22;10404;51.468;6.762;2023-10-09T09:45:16;15.40;78.70
20492;DHT22;10404;51.468;6.762;2023-10-09T09:47:44;15.40;78.70
20492;DHT22;10404;51.468;6.762;2023-10-09T09:50:17;15.50;78.60
20492;DHT22;10404;51.468;6.762;2023-10-09T09:52:50;15.60;78.40
20492;DHT22;10404;51.468;6.762;2023-10-09T09:55:34;15.60;78.70
20492;DHT22;10404;51.468;6.762;2023-10-09T09:58:02;15.60;78.40
20492;DHT22;10404;51.468;6.762;2023-10-09T10:00:33;15.60;78.70
20492;DHT22;10404;51.468;6.762;2023-10-09T10:03:12;15.70;78.40
20492;DHT22;10404;51.468;6.762;2023-10-09T10:05:43;15.80;78.20
20492;DHT22;10404;51.468;6.762;2023-10-09T10:08:15;15.80;78.10
20492;DHT22;10404;51.468;6.762;2023-10-09T10:10:44;15.90;78.00
20492;DHT22;10404;51.468;6.762;2023-10-09T10:13:15;16.00;78.10
20492;DHT22;10404;51.468;6.762;2023-10-09T10:15:59;16.00;78.00
20492;DHT22;10404;51.468;6.762;2023-10-09T10:18:33;16.10;77.80
20492;DHT22;10404;51.468;6.762;2023-10-09T10:21:18;16.10;78.00
20492;DHT22;10404;51.468;6.762;2023-10-09T10:24:02;16.10;77.90
20492;DHT22;10404;51.468;6.762;2023-10-09T10:26:36;16.20;78.10
20492;DHT22;10404;51.468;6.762;2023-10-09T10:29:18;16.20;77.90
20492;DHT22;10404;51.468;6.762;2023-10-09T10:32:01;16.20;78.30
20492;DHT22;10404;51.468;6.762;2023-10-09T10:34:53;16.30;78.10
20492;DHT22;10404;51.468;6.762;2023-10-09T10:37:36;16.40;77.90
20492;DHT22;10404;51.468;6.762;2023-10-09T10:40:26;16.40;77.80
20492;DHT22;10404;51.468;6.762;2023-10-09T10:43:18;16.50;77.60
20492;DHT22;10404;51.468;6.762;2023-10-09T10:46:16;16.50;77.60
20492;DHT22;10404;51.468;6.762;2023-10-09T10:49:02;16.60;77.80
20492;DHT22;10404;51.468;6.762;2023-10-09T10:51:43;16.60;77.40
20492;DHT22;10404;51.468;6.762;2023-10-09T10:54:21;16.70;77.40
20492;DHT22;10404;51.468;6.762;2023-10-09T10:57:02;16.70;77.40
20492;DHT22;10404;51.468;6.762;2023-10-09T10:59:39;16.80;77.20
20492;DHT22;10404;51.468;6.762;2023-10-09T11:02:11;16.80;77.30
20492;DHT22;10404;51.468;6.762;2023-10-09T11:04:38;16.90;77.20
20492;DHT22;10404;51.468;6.762;2023-10-09T11:07:08;16.90;77.00
20492;DHT22;10404;51.468;6.762;2023-10-09T11:09:57;17.00;77.00
20492;DHT22;10404;51.468;6.762;2023-10-09T11:12:32;17.00;77.00
20492;DHT22;10404;51.468;6.762;2023-10-09T11:15:38;17.10;76.80
20492;DHT22;10404;51.468;6.762;2023-10-09T11:18:10;17.20;76.90
20492;DHT22;10404;51.468;6.762;2023-10-09T11:20:53;17.20;76.70
20492;DHT22;10404;51.468;6.762;2023-10-09T11:23:42;17.40;76.50
20492;DHT22;10404;51.468;6.762;2023-10-09T11:26:17;17.40;77.00
20492;DHT22;10404;51.468;6.762;2023-10-09T11:29:11;17.50;75.90
20492;DHT22;10404;51.468;6.762;2023-10-09T11:32:07;17.50;76.20
20492;DHT22;10404;51.468;6.762;2023-10-09T11:34:43;17.60;75.80
20492;DHT22;10404;51.468;6.762;2023-10-09T11:37:18;17.60;76.60
20492;DHT22;10404;51.468;6.762;2023-10-09T11:39:57;17.70;75.80
20492;DHT22;10404;51.468;6.762;2023-10-09T11:42:25;17.80;75.80
20492;DHT22;10404;51.468;6.762;2023-10-09T11:45:27;17.80;74.90
20492;DHT22;10404;51.468;6.762;2023-10-09T11:48:16;17.90;75.40
20492;DHT22;10404;51.468;6.762;2023-10-09T11:50:48;18.00;75.40
20492;DHT22;10404;51.468;6.762;2023-10-09T11:53:17;18.00;74.90
20492;DHT22;10404;51.468;6.762;2023-10-09T11:55:59;18.10;75.40
20492;DHT22;10404;51.468;6.762;2023-10-09T11:58:25;18.10;74.90
20492;DHT22;10404;51.468;6.762;2023-10-09T12:00:54;18.20;74.70
20492;DHT22;10404;51.468;6.762;2023-10-09T12:03:30;18.20;75.10
20492;DHT22;10404;51.468;6.762;2023-10-09T12:05:58;18.30;74.70
20492;DHT22;10404;51.468;6.762;2023-10-09T12:08:25;18.30;74.30
20492;DHT22;10404;51.468;6.762;2023-10-09T12:10:54;18.40;75.20
20492;DHT22;10404;51.468;6.762;2023-10-09T12:13:22;18.40;74.80
20492;DHT22;10404;51.468;6.762;2023-10-09T12:15:49;18.50;74.80
20492;DHT22;10404;51.468;6.762;2023-10-09T12:18:18;18.50;74.90
20492;DHT22;10404;51.468;6.762;2023-10-09T12:20:44;18.60;74.30
20492;DHT22;10404;51.468;6.762;2023-10-09T12:23:17;18.60;74.40
20492;DHT22;10404;51.468;6.762;2023-10-09T12:25:42;18.70;74.00
20492;DHT22;10404;51.468;6.762;2023-10-09T12:28:11;18.70;73.90
20492;DHT22;10404;51.468;6.762;2023-10-09T12:30:38;18.70;74.40
20492;DHT22;10404;51.468;6.762;2023-10-09T12:33:08;18.80;74.30
20492;DHT22;10404;51.468;6.762;2023-10-09T12:35:38;18.80;74.10
20492;DHT22;10404;51.468;6.762;2023-10-09T12:38:05;18.90;74.00
20492;DHT22;10404;51.468;6.762;2023-10-09T12:40:38;18.90;74.20
20492;DHT22;10404;51.468;6.762;2023-10-09T12:43:06;19.00;74.00
20492;DHT22;10404;51.468;6.762;2023-10-09T12:45:41;19.00;73.50
20492;DHT22;10404;51.468;6.762;2023-10-09T12:48:07;19.00;73.50
20492;DHT22;10404;51.468;6.762;2023-10-09T12:50:35;19.10;73.40
20492;DHT22;10404;51.468;6.762;2023-10-09T12:53:07;19.10;73.60
20492;DHT22;10404;51.468;6.762;2023-10-09T12:55:40;19.20;73.20
20492;DHT22;10404;51.468;6.762;2023-10-09T12:58:10;19.20;73.50
20492;DHT22;10404;51.468;6.762;2023-10-09T13:00:41;19.30;73.20
20492;DHT22;10404;51.468;6.762;2023-10-09T13:03:15;19.30;73.30
20492;DHT22;10404;51.468;6.762;2023-10-09T13:05:51;19.40;73.70
20492;DHT22;10404;51.468;6.762;2023-10-09T13:08:28;19.40;72.80
20492;DHT22;10404;51.468;6.762;2023-10-09T13:11:01;19.50;72.60
20492;DHT22;10404;51.468;6.762;2023-10-09T13:13:30;19.50;72.90
20492;DHT22;10404;51.468;6.762;2023-10-09T13:16:20;19.50;72.10
20492;DHT22;10404;51.468;6.762;2023-10-09T13:18:52;19.60;72.30
20492;DHT22;10404;51.468;6.762;2023-10-09T13:21:28;19.70;71.70
20492;DHT22;10404;51.468;6.762;2023-10-09T13:23:59;19.70;72.20
20492;DHT22;10404;51.468;6.762;2023-10-09T13:26:28;19.70;72.00
20492;DHT22;10404;51.468;6.762;2023-10-09T13:28:56;19.80;72.10
20492;DHT22;10404;51.468;6.762;2023-10-09T13:31:24;19.80;71.80
20492;DHT22;10404;51.468;6.762;2023-10-09T13:33:54;19.90;71.50
20492;DHT22;10404;51.468;6.762;2023-10-09T13:36:23;19.90;71.40
20492;DHT22;10404;51.468;6.762;2023-10-09T13:38:55;19.90;71.40
20492;DHT22;10404;51.468;6.762;2023-10-09T13:41:21;19.90;71.60
20492;DHT22;10404;51.468;6.762;2023-10-09T13:43:47;20.00;71.50
20492;DHT22;10404;51.468;6.762;2023-10-09T13:46:17;20.00;71.30
20492;DHT22;10404;51.468;6.762;2023-10-09T13:48:43;20.10;71.50
20492;DHT22;10404;51.468;6.762;2023-10-09T13:51:11;20.10;71.30
20492;DHT22;10404;51.468;6.762;2023-10-09T13:53:43;20.10;71.00
20492;DHT22;10404;51.468;6.762;2023-10-09T13:56:19;20.20;70.90
20492;DHT22;10404;51.468;6.762;2023-10-09T13:58:50;20.10;70.70
20492;DHT22;10404;51.468;6.762;2023-10-09T14:01:17;20.20;70.70
20492;DHT22;10404;51.468;6.762;2023-10-09T14:03:59;20.30;70.70
20492;DHT22;10404;51.468;6.762;2023-10-09T14:06:26;20.30;70.70
20492;DHT22;10404;51.468;6.762;2023-10-09T14:09:04;20.30;70.60
20492;DHT22;10404;51.468;6.762;2023-10-09T14:11:33;20.30;70.50
20492;DHT22;10404;51.468;6.762;2023-10-09T14:14:03;20.40;70.60
20492;DHT22;10404;51.468;6.762;2023-10-09T14:16:29;20.50;70.60
20492;DHT22;10404;51.468;6.762;2023-10-09T14:18:58;20.50;70.60
20492;DHT22;10404;51.468;6.762;2023-10-09T14:21:32;20.50;70.30
20492;DHT22;10404;51.468;6.762;2023-10-09T14:24:01;20.40;68.40
20492;DHT22;10404;51.468;6.762;2023-10-09T14:26:27;20.30;67.90
20492;DHT22;10404;51.468;6.762;2023-10-09T14:28:54;20.30;68.10
20492;DHT22;10404;51.468;6.762;2023-10-09T14:31:25;20.30;68.00
20492;DHT22;10404;51.468;6.762;2023-10-09T14:33:57;20.30;68.00
20492;DHT22;10404;51.468;6.762;2023-10-09T14:36:23;20.30;68.00
20492;DHT22;10404;51.468;6.762;2023-10-09T14:38:49;20.30;68.60
20492;DHT22;10404;51.468;6.762;2023-10-09T14:41:19;20.30;69.30
20492;DHT22;10404;51.468;6.762;2023-10-09T14:43:47;20.50;69.00
20492;DHT22;10404;51.468;6.762;2023-10-09T14:46:14;20.50;69.30
20492;DHT22;10404;51.468;6.762;2023-10-09T14:48:40;20.50;68.70
20492;DHT22;10404;51.468;6.762;2023-10-09T14:51:06;20.50;69.00
20492;DHT22;10404;51.468;6.762;2023-10-09T14:53:35;20.50;68.90
20492;DHT22;10404;51.468;6.762;2023-10-09T14:56:01;20.60;68.90
20492;DHT22;10404;51.468;6.762;2023-10-09T14:58:29;20.60;68.80
20492;DHT22;10404;51.468;6.762;2023-10-09T15:00:58;20.60;69.20
20492;DHT22;10404;51.468;6.762;2023-10-09T15:03:35;20.60;69.40
20492;DHT22;10404;51.468;6.762;2023-10-09T15:06:03;20.60;68.90
20492;DHT22;10404;51.468;6.762;2023-10-09T15:08:28;20.60;69.00
20492;DHT22;10404;51.468;6.762;2023-10-09T15:10:55;20.60;68.70
20492;DHT22;10404;51.468;6.762;2023-10-09T15:13:22;20.60;69.00
20492;DHT22;10404;51.468;6.762;2023-10-09T15:15:53;20.60;69.00
20492;DHT22;10404;51.468;6.762;2023-10-09T15:18:20;20.60;69.00
20492;DHT22;10404;51.468;6.762;2023-10-09T15:20:49;20.60;69.20
20492;DHT22;10404;51.468;6.762;2023-10-09T15:23:17;20.60;68.90
20492;DHT22;10404;51.468;6.762;2023-10-09T15:25:45;20.60;69.20
20492;DHT22;10404;51.468;6.762;2023-10-09T15:28:15;20.50;69.10
20492;DHT22;10404;51.468;6.762;2023-10-09T15:30:41;20.50;69.40
20492;DHT22;10404;51.468;6.762;2023-10-09T15:33:08;20.50;69.40
20492;DHT22;10404;51.468;6.762;2023-10-09T15:35:36;20.50;69.30
20492;DHT22;10404;51.468;6.762;2023-10-09T15:38:03;20.50;69.30
20492;DHT22;10404;51.468;6.762;2023-10-09T15:40:32;20.50;69.50
20492;DHT22;10404;51.468;6.762;2023-10-09T15:43:03;20.50;69.30
20492;DHT22;10404;51.468;6.762;2023-10-09T15:45:30;20.50;69.30
20492;DHT22;10404;51.468;6.762;2023-10-09T15:47:57;20.50;69.20
20492;DHT22;10404;51.468;6.762;2023-10-09T15:50:25;20.50;69.30
20492;DHT22;10404;51.468;6.762;2023-10-09T15:52:54;20.50;69.30
20492;DHT22;10404;51.468;6.762;2023-10-09T15:55:20;20.50;69.50
20492;DHT22;10404;51.468;6.762;2023-10-09T15:57:46;20.50;69.40
20492;DHT22;10404;51.468;6.762;2023-10-09T16:00:15;20.50;69.40
20492;DHT22;10404;51.468;6.762;2023-10-09T16:02:47;20.50;69.50
20492;DHT22;10404;51.468;6.762;2023-10-09T16:05:13;20.50;69.50
20492;DHT22;10404;51.468;6.762;2023-10-09T16:07:39;20.50;69.50
20492;DHT22;10404;51.468;6.762;2023-10-09T16:10:08;20.50;69.60
20492;DHT22;10404;51.468;6.762;2023-10-09T16:12:36;20.50;69.60
20492;DHT22;10404;51.468;6.762;2023-10-09T16:15:01;20.50;69.60
20492;DHT22;10404;51.468;6.762;2023-10-09T16:17:32;20.40;69.60
20492;DHT22;10404;51.468;6.762;2023-10-09T16:20:01;20.40;69.60